Time,TemperatureF,DewpointF,PressureIn,WindDirection,WindDirectionDegrees,WindSpeedMPH,WindSpeedGustMPH,Humidity,HourlyPrecipIn,Conditions,Clouds,dailyrainin,SolarRadiationWatts/m^2,SoftwareType,DateUTC
2013-01-02 00:03:00,58.0,57.0,-100.00,NE,37,0.0,0.0,97,0.00,,,-99.99,0.000000,,2013-01-02 05:03:00,
2013-01-02 00:11:00,58.0,57.0,-100.00,SE,143,0.0,2.0,97,0.00,,,0.00,0.000000,,2013-01-02 05:11:00,
2013-01-02 00:33:00,58.0,57.0,-100.00,SE,143,0.0,2.0,97,0.00,,,0.00,0.000000,,2013-01-02 05:33:00,
2013-01-02 00:43:00,58.0,57.0,-100.00,SE,143,0.0,2.0,97,0.00,,,0.00,0.000000,,2013-01-02 05:43:00,
2013-01-02 00:53:00,58.0,57.0,-100.00,SE,143,0.0,2.0,97,0.00,,,0.00,0.000000,,2013-01-02 05:53:00,
2013-01-02 01:02:00,58.0,57.0,-100.00,SE,143,0.0,2.0,97,0.00,,,0.00,0.000000,,2013-01-02 06:02:00,
2013-01-02 01:11:00,58.0,57.0,-100.00,NE,46,0.0,0.0,97,0.00,,,0.00,0.000000,,2013-01-02 06:11:00,
2013-01-02 01:33:00,58.0,57.0,-100.00,NE,46,0.0,0.0,97,0.00,,,0.00,0.000000,,2013-01-02 06:33:00,
2013-01-02 01:42:00,58.0,57.0,-100.00,NE,46,0.0,0.0,97,0.00,,,0.00,0.000000,,2013-01-02 06:42:00,
2013-01-02 01:53:00,58.0,57.0,-100.00,NE,46,0.0,0.0,97,0.00,,,0.00,0.000000,,2013-01-02 06:53:00,
2013-01-02 02:02:00,58.0,57.0,-100.00,NE,46,0.0,0.0,97,0.00,,,0.00,0.000000,,2013-01-02 07:02:00,
2013-01-02 02:11:00,58.0,57.0,-100.00,WNW,303,0.0,2.0,97,0.00,,,0.00,0.000000,,2013-01-02 07:11:00,
2013-01-02 02:32:00,58.0,57.0,-100.00,WNW,303,0.0,2.0,97,0.00,,,0.00,0.000000,,2013-01-02 07:32:00,
2013-01-02 02:42:00,58.0,57.0,-100.00,WNW,303,0.0,2.0,97,0.00,,,0.00,0.000000,,2013-01-02 07:42:00,
2013-01-02 02:52:00,58.0,57.0,-100.00,WNW,303,0.0,2.0,97,0.00,,,0.00,0.000000,,2013-01-02 07:52:00,
2013-01-02 03:02:00,58.0,57.0,-100.00,WNW,303,0.0,2.0,97,0.00,,,0.00,0.000000,,2013-01-02 08:02:00,
2013-01-02 03:11:00,56.0,55.0,-100.00,SE,142,0.0,2.0,97,0.00,,,0.00,0.000000,,2013-01-02 08:11:00,
2013-01-02 03:32:00,56.0,55.0,-100.00,SE,142,0.0,2.0,97,0.00,,,0.00,0.000000,,2013-01-02 08:32:00,
2013-01-02 03:42:00,56.0,55.0,-100.00,SE,142,0.0,2.0,97,0.00,,,0.00,0.000000,,2013-01-02 08:42:00,
2013-01-02 03:53:00,56.0,55.0,-100.00,SE,142,0.0,2.0,97,0.00,,,0.00,0.000000,,2013-01-02 08:53:00,
2013-01-02 04:02:00,56.0,55.0,-100.00,SE,142,0.0,2.0,97,0.00,,,0.00,0.000000,,2013-01-02 09:02:00,
2013-01-02 04:11:00,56.0,55.0,-100.00,SSE,147,0.0,2.0,97,0.00,,,0.00,0.000000,,2013-01-02 09:11:00,
2013-01-02 04:32:00,56.0,55.0,-100.00,SSE,147,0.0,2.0,97,0.00,,,0.00,0.000000,,2013-01-02 09:32:00,
2013-01-02 04:43:00,56.0,55.0,-100.00,SSE,147,0.0,2.0,97,0.00,,,0.00,0.000000,,2013-01-02 09:43:00,
2013-01-02 04:53:00,56.0,55.0,-100.00,SSE,147,0.0,2.0,97,0.00,,,0.00,0.000000,,2013-01-02 09:53:00,
2013-01-02 05:02:00,56.0,55.0,-100.00,SSE,147,0.0,2.0,97,0.00,,,0.00,0.000000,,2013-01-02 10:02:00,
2013-01-02 05:11:00,55.0,54.0,-100.00,NNW,348,0.0,2.0,97,0.00,,,0.00,0.000000,,2013-01-02 10:11:00,
2013-01-02 05:32:00,55.0,54.0,-100.00,NNW,348,0.0,2.0,97,0.00,,,0.00,0.000000,,2013-01-02 10:32:00,
2013-01-02 05:43:00,55.0,54.0,-100.00,NNW,348,0.0,2.0,97,0.00,,,0.00,0.000000,,2013-01-02 10:43:00,
2013-01-02 05:53:00,55.0,54.0,-100.00,NNW,348,0.0,2.0,97,0.00,,,0.00,0.000000,,2013-01-02 10:53:00,
2013-01-02 06:02:00,55.0,54.0,-100.00,NNW,348,0.0,2.0,97,0.00,,,0.00,0.000000,,2013-01-02 11:02:00,
2013-01-02 06:11:00,55.0,54.0,-100.00,NNE,31,0.0,2.0,97,0.00,,,0.00,0.000000,,2013-01-02 11:11:00,
2013-01-02 06:33:00,55.0,54.0,-100.00,NNE,31,0.0,2.0,97,0.00,,,0.00,0.000000,,2013-01-02 11:33:00,
2013-01-02 06:43:00,55.0,54.0,-100.00,NNE,31,0.0,2.0,97,0.00,,,0.00,0.000000,,2013-01-02 11:43:00,
2013-01-02 06:53:00,55.0,54.0,-100.00,NNE,31,0.0,2.0,97,0.00,,,0.00,0.000000,,2013-01-02 11:53:00,
2013-01-02 07:03:00,55.0,54.0,-100.00,NNE,31,0.0,2.0,97,0.00,,,0.00,0.000000,,2013-01-02 12:03:00,
2013-01-02 07:11:00,54.0,53.0,-100.00,North,4,0.0,0.0,97,0.00,,,0.00,0.000000,,2013-01-02 12:11:00,
2013-01-02 07:33:00,54.0,53.0,-100.00,North,4,0.0,0.0,97,0.00,,,0.00,0.000000,,2013-01-02 12:33:00,
2013-01-02 07:43:00,54.0,53.0,-100.00,North,4,0.0,0.0,97,0.00,,,0.00,0.000000,,2013-01-02 12:43:00,
2013-01-02 07:53:00,54.0,53.0,-100.00,North,4,0.0,0.0,97,0.00,,,0.00,0.000000,,2013-01-02 12:53:00,
2013-01-02 08:03:00,54.0,53.0,-100.00,North,4,0.0,0.0,97,0.00,,,0.00,0.000000,,2013-01-02 13:03:00,
2013-01-02 08:11:00,58.0,57.0,-100.00,West,280,0.0,0.0,98,0.00,,,0.00,22.000000,,2013-01-02 13:11:00,
2013-01-02 08:33:00,58.0,57.0,-100.00,West,280,0.0,0.0,98,0.00,,,0.00,22.000000,,2013-01-02 13:33:00,
2013-01-02 08:43:00,58.0,57.0,-100.00,West,280,0.0,0.0,98,0.00,,,0.00,22.000000,,2013-01-02 13:43:00,
2013-01-02 08:53:00,58.0,57.0,-100.00,West,280,0.0,0.0,98,0.00,,,0.00,22.000000,,2013-01-02 13:53:00,
2013-01-02 09:03:00,58.0,57.0,-100.00,West,280,0.0,0.0,98,0.00,,,0.00,22.000000,,2013-01-02 14:03:00,
2013-01-02 09:11:00,65.0,64.0,-100.00,SSE,161,1.0,4.0,97,0.00,,,0.00,77.000000,,2013-01-02 14:11:00,
2013-01-02 09:43:00,65.0,64.0,-100.00,SSE,161,1.0,4.0,97,0.00,,,0.00,77.000000,,2013-01-02 14:43:00,
2013-01-02 09:53:00,65.0,64.0,-100.00,SSE,161,1.0,4.0,97,0.00,,,0.00,77.000000,,2013-01-02 14:53:00,
2013-01-02 10:03:00,65.0,64.0,-100.00,SSE,161,1.0,4.0,97,0.00,,,0.00,77.000000,,2013-01-02 15:03:00,
2013-01-02 10:11:00,77.0,68.0,-100.00,South,174,4.0,6.0,73,0.00,,,0.00,342.000000,,2013-01-02 15:11:00,
2013-01-02 10:33:00,77.0,68.0,-100.00,South,174,4.0,6.0,73,0.00,,,0.00,342.000000,,2013-01-02 15:33:00,
2013-01-02 10:43:00,77.0,68.0,-100.00,South,174,4.0,6.0,73,0.00,,,0.00,342.000000,,2013-01-02 15:43:00,
2013-01-02 10:53:00,77.0,68.0,-100.00,South,174,4.0,6.0,73,0.00,,,0.00,342.000000,,2013-01-02 15:53:00,
2013-01-02 11:03:00,77.0,68.0,-100.00,South,174,4.0,6.0,73,0.00,,,0.00,342.000000,,2013-01-02 16:03:00,
2013-01-02 11:11:00,77.0,66.0,-100.00,SSE,161,3.0,8.0,68,0.00,,,0.00,299.000000,,2013-01-02 16:11:00,
2013-01-02 11:33:00,77.0,66.0,-100.00,SSE,161,3.0,8.0,68,0.00,,,0.00,299.000000,,2013-01-02 16:33:00,
2013-01-02 11:43:00,77.0,66.0,-100.00,SSE,161,3.0,8.0,68,0.00,,,0.00,299.000000,,2013-01-02 16:43:00,
2013-01-02 11:54:00,77.0,66.0,-100.00,SSE,161,3.0,8.0,68,0.00,,,0.00,299.000000,,2013-01-02 16:54:00,
2013-01-02 12:03:00,77.0,66.0,-100.00,SSE,161,3.0,8.0,68,0.00,,,0.00,299.000000,,2013-01-02 17:03:00,
2013-01-02 12:11:00,81.0,66.0,-100.00,SE,126,3.0,8.0,60,0.00,,,0.00,448.000000,,2013-01-02 17:11:00,
2013-01-02 12:43:00,81.0,66.0,-100.00,SE,126,3.0,8.0,60,0.00,,,0.00,448.000000,,2013-01-02 17:43:00,
2013-01-02 12:54:00,81.0,66.0,-100.00,SE,126,3.0,8.0,60,0.00,,,0.00,448.000000,,2013-01-02 17:54:00,
2013-01-02 13:03:00,81.0,66.0,-100.00,SE,126,3.0,8.0,60,0.00,,,0.00,448.000000,,2013-01-02 18:03:00,
2013-01-02 13:11:00,83.0,65.0,-100.00,SW,219,4.0,8.0,55,0.00,,,0.00,633.000000,,2013-01-02 18:11:00,
2013-01-02 13:33:00,83.0,65.0,-100.00,SW,219,4.0,8.0,55,0.00,,,0.00,633.000000,,2013-01-02 18:33:00,
2013-01-02 13:43:00,83.0,65.0,-100.00,SW,219,4.0,8.0,55,0.00,,,0.00,633.000000,,2013-01-02 18:43:00,
2013-01-02 13:53:00,83.0,65.0,-100.00,SW,219,4.0,8.0,55,0.00,,,0.00,633.000000,,2013-01-02 18:53:00,
2013-01-02 14:03:00,83.0,65.0,-100.00,SW,219,4.0,8.0,55,0.00,,,0.00,633.000000,,2013-01-02 19:03:00,
2013-01-02 14:11:00,82.0,64.0,-100.00,SSW,202,5.0,11.0,55,0.00,,,0.00,542.000000,,2013-01-02 19:11:00,
2013-01-02 14:33:00,82.0,64.0,-100.00,SSW,202,5.0,11.0,55,0.00,,,0.00,542.000000,,2013-01-02 19:33:00,
2013-01-02 14:43:00,82.0,64.0,-100.00,SSW,202,5.0,11.0,55,0.00,,,0.00,542.000000,,2013-01-02 19:43:00,
2013-01-02 14:53:00,82.0,64.0,-100.00,SSW,202,5.0,11.0,55,0.00,,,0.00,542.000000,,2013-01-02 19:53:00,
2013-01-02 15:03:00,82.0,64.0,-100.00,SSW,202,5.0,11.0,55,0.00,,,0.00,542.000000,,2013-01-02 20:03:00,
2013-01-02 15:11:00,83.0,66.0,-100.00,SSW,202,4.0,10.0,56,0.00,,,0.00,491.000000,,2013-01-02 20:11:00,
2013-01-02 15:33:00,83.0,66.0,-100.00,SSW,202,4.0,10.0,56,0.00,,,0.00,491.000000,,2013-01-02 20:33:00,
2013-01-02 15:42:00,83.0,66.0,-100.00,SSW,202,4.0,10.0,56,0.00,,,0.00,491.000000,,2013-01-02 20:42:00,
2013-01-02 15:53:00,83.0,66.0,-100.00,SSW,202,4.0,10.0,56,0.00,,,0.00,491.000000,,2013-01-02 20:53:00,
2013-01-02 16:03:00,83.0,66.0,-100.00,SSW,202,4.0,10.0,56,0.00,,,0.00,491.000000,,2013-01-02 21:03:00,
2013-01-02 16:11:00,79.0,66.0,-100.00,SSW,203,4.0,11.0,64,0.00,,,0.00,281.000000,,2013-01-02 21:11:00,
2013-01-02 16:43:00,79.0,66.0,-100.00,SSW,203,4.0,11.0,64,0.00,,,0.00,281.000000,,2013-01-02 21:43:00,
2013-01-02 16:53:00,79.0,66.0,-100.00,SSW,203,4.0,11.0,64,0.00,,,0.00,281.000000,,2013-01-02 21:53:00,
2013-01-02 17:03:00,79.0,66.0,-100.00,SSW,203,4.0,11.0,64,0.00,,,0.00,281.000000,,2013-01-02 22:03:00,
2013-01-02 17:11:00,76.0,65.0,-100.00,SSW,197,3.0,8.0,69,0.00,,,0.00,131.000000,,2013-01-02 22:11:00,
2013-01-02 17:43:00,76.0,65.0,-100.00,SSW,197,3.0,8.0,69,0.00,,,0.00,131.000000,,2013-01-02 22:43:00,
2013-01-02 17:53:00,76.0,65.0,-100.00,SSW,197,3.0,8.0,69,0.00,,,0.00,131.000000,,2013-01-02 22:53:00,
2013-01-02 18:03:00,76.0,65.0,-100.00,SSW,197,3.0,8.0,69,0.00,,,0.00,131.000000,,2013-01-02 23:03:00,
2013-01-02 18:11:00,68.0,64.0,-100.00,SSW,199,0.0,6.0,87,0.00,,,0.00,14.000000,,2013-01-02 23:11:00,
2013-01-02 18:33:00,68.0,64.0,-100.00,SSW,199,0.0,6.0,87,0.00,,,0.00,14.000000,,2013-01-02 23:33:00,
2013-01-02 18:43:00,68.0,64.0,-100.00,SSW,199,0.0,6.0,87,0.00,,,0.00,14.000000,,2013-01-02 23:43:00,
2013-01-02 18:53:00,68.0,64.0,-100.00,SSW,199,0.0,6.0,87,0.00,,,0.00,14.000000,,2013-01-02 23:53:00,
2013-01-02 19:02:00,68.0,64.0,-100.00,SSW,199,0.0,6.0,87,0.00,,,0.00,14.000000,,2013-01-03 00:02:00,
2013-01-02 19:11:00,63.0,61.0,-100.00,SE,143,0.0,2.0,94,0.00,,,0.00,0.000000,,2013-01-03 00:11:00,
2013-01-02 19:38:00,63.0,61.0,-100.00,SE,143,0.0,2.0,94,0.00,,,0.00,0.000000,,2013-01-03 00:38:00,
2013-01-02 19:53:00,63.0,61.0,-100.00,SE,143,0.0,2.0,94,0.00,,,0.00,0.000000,,2013-01-03 00:53:00,
2013-01-02 20:02:00,63.0,61.0,-100.00,SE,143,0.0,2.0,94,0.00,,,0.00,0.000000,,2013-01-03 01:02:00,
2013-01-02 20:11:00,61.0,60.0,-100.00,SW,227,0.0,0.0,95,0.00,,,0.00,0.000000,,2013-01-03 01:11:00,
2013-01-02 20:33:00,61.0,60.0,-100.00,SW,227,0.0,0.0,95,0.00,,,0.00,0.000000,,2013-01-03 01:33:00,
2013-01-02 20:43:00,61.0,60.0,-100.00,SW,227,0.0,0.0,95,0.00,,,0.00,0.000000,,2013-01-03 01:43:00,
2013-01-02 20:53:00,61.0,60.0,-100.00,SW,227,0.0,0.0,95,0.00,,,0.00,0.000000,,2013-01-03 01:53:00,
2013-01-02 21:02:00,61.0,60.0,-100.00,SW,227,0.0,0.0,95,0.00,,,0.00,0.000000,,2013-01-03 02:02:00,
2013-01-02 21:11:00,60.0,59.0,-100.00,WSW,250,0.0,2.0,96,0.00,,,0.00,0.000000,,2013-01-03 02:11:00,
2013-01-02 21:33:00,60.0,59.0,-100.00,WSW,250,0.0,2.0,96,0.00,,,0.00,0.000000,,2013-01-03 02:33:00,
2013-01-02 21:43:00,60.0,59.0,-100.00,WSW,250,0.0,2.0,96,0.00,,,0.00,0.000000,,2013-01-03 02:43:00,
2013-01-02 21:53:00,60.0,59.0,-100.00,WSW,250,0.0,2.0,96,0.00,,,0.00,0.000000,,2013-01-03 02:53:00,
2013-01-02 22:02:00,60.0,59.0,-100.00,WSW,250,0.0,2.0,96,0.00,,,0.00,0.000000,,2013-01-03 03:02:00,
2013-01-02 22:11:00,60.0,59.0,-100.00,North,9,0.0,2.0,97,0.00,,,0.00,0.000000,,2013-01-03 03:11:00,
2013-01-02 22:47:00,60.0,59.0,-100.00,North,9,0.0,2.0,97,0.00,,,0.00,0.000000,,2013-01-03 03:47:00,
2013-01-02 22:53:00,60.0,59.0,-100.00,North,9,0.0,2.0,97,0.00,,,0.00,0.000000,,2013-01-03 03:53:00,
2013-01-02 23:03:00,60.0,59.0,-100.00,North,9,0.0,2.0,97,0.00,,,0.00,0.000000,,2013-01-03 04:03:00,
2013-01-02 23:11:00,59.0,58.0,-100.00,ESE,119,0.0,2.0,97,0.00,,,0.00,0.000000,,2013-01-03 04:11:00,
2013-01-02 23:33:00,59.0,58.0,-100.00,ESE,119,0.0,2.0,97,0.00,,,0.00,0.000000,,2013-01-03 04:33:00,
2013-01-02 23:43:00,59.0,58.0,-100.00,ESE,119,0.0,2.0,97,0.00,,,0.00,0.000000,,2013-01-03 04:43:00,
2013-01-02 23:53:00,59.0,58.0,-100.00,ESE,119,0.0,2.0,97,0.00,,,0.00,0.000000,,2013-01-03 04:53:00,